sensor_id;sensor_type;location;lat;lon;timestamp;temperature;humidity
5705;DHT22;2877;48.238;11.160;2023-06-05T00:00:56;14.50;99.90
5705;DHT22;2877;48.238;11.160;2023-06-05T00:03:22;14.50;99.90
5705;DHT22;2877;48.238;11.160;2023-06-05T00:05:49;14.50;99.90
5705;DHT22;2877;48.238;11.160;2023-06-05T00:08:15;14.40;99.90
5705;DHT22;2877;48.238;11.160;2023-06-05T00:10:42;14.40;99.90
5705;DHT22;2877;48.238;11.160;2023-06-05T00:13:07;14.40;99.90
5705;DHT22;2877;48.238;11.160;2023-06-05T00:15:33;14.30;99.90
5705;DHT22;2877;48.238;11.160;2023-06-05T00:18:01;14.30;99.90
5705;DHT22;2877;48.238;11.160;2023-06-05T00:20:27;14.30;99.90
5705;DHT22;2877;48.238;11.160;2023-06-05T00:22:53;14.30;99.90
5705;DHT22;2877;48.238;11.160;2023-06-05T00:25:20;14.40;99.90
5705;DHT22;2877;48.238;11.160;2023-06-05T00:27:46;14.40;99.90
5705;DHT22;2877;48.238;11.160;2023-06-05T00:30:12;14.30;99.90
5705;DHT22;2877;48.238;11.160;2023-06-05T00:32:38;14.30;99.90
5705;DHT22;2877;48.238;11.160;2023-06-05T00:35:05;14.40;99.90
5705;DHT22;2877;48.238;11.160;2023-06-05T00:37:31;14.50;99.90
5705;DHT22;2877;48.238;11.160;2023-06-05T00:39:56;14.50;99.90
5705;DHT22;2877;48.238;11.160;2023-06-05T00:42:22;14.50;99.90
5705;DHT22;2877;48.238;11.160;2023-06-05T00:44:48;14.60;99.90
5705;DHT22;2877;48.238;11.160;2023-06-05T00:47:14;14.60;99.90
5705;DHT22;2877;48.238;11.160;2023-06-05T00:49:40;14.60;99.90
5705;DHT22;2877;48.238;11.160;2023-06-05T00:52:06;14.50;99.90
5705;DHT22;2877;48.238;11.160;2023-06-05T00:54:33;14.50;99.90
5705;DHT22;2877;48.238;11.160;2023-06-05T00:56:58;14.40;99.90
5705;DHT22;2877;48.238;11.160;2023-06-05T00:59:26;14.40;99.90
5705;DHT22;2877;48.238;11.160;2023-06-05T01:01:51;14.30;99.90
5705;DHT22;2877;48.238;11.160;2023-06-05T01:04:19;14.20;99.90
5705;DHT22;2877;48.238;11.160;2023-06-05T01:06:45;14.30;99.90
5705;DHT22;2877;48.238;11.160;2023-06-05T01:09:11;14.30;99.90
5705;DHT22;2877;48.238;11.160;2023-06-05T01:12:17;14.30;99.90
5705;DHT22;2877;48.238;11.160;2023-06-05T01:14:48;14.30;99.90
5705;DHT22;2877;48.238;11.160;2023-06-05T01:17:16;14.20;99.90
5705;DHT22;2877;48.238;11.160;2023-06-05T01:19:44;14.20;99.90
5705;DHT22;2877;48.238;11.160;2023-06-05T01:22:11;14.20;99.90
5705;DHT22;2877;48.238;11.160;2023-06-05T01:24:38;14.20;99.90
5705;DHT22;2877;48.238;11.160;2023-06-05T01:27:18;14.20;99.90
5705;DHT22;2877;48.238;11.160;2023-06-05T01:35:21;14.10;99.90
5705;DHT22;2877;48.238;11.160;2023-06-05T01:37:54;14.10;99.90
5705;DHT22;2877;48.238;11.160;2023-06-05T01:40:22;14.10;99.90
5705;DHT22;2877;48.238;11.160;2023-06-05T01:42:49;14.00;99.90
5705;DHT22;2877;48.238;11.160;2023-06-05T01:45:17;14.00;99.90
5705;DHT22;2877;48.238;11.160;2023-06-05T01:47:43;14.00;99.90
5705;DHT22;2877;48.238;11.160;2023-06-05T01:50:09;14.00;99.90
5705;DHT22;2877;48.238;11.160;2023-06-05T01:52:38;13.90;99.90
5705;DHT22;2877;48.238;11.160;2023-06-05T01:55:06;13.90;99.90
5705;DHT22;2877;48.238;11.160;2023-06-05T01:57:32;13.90;99.90
5705;DHT22;2877;48.238;11.160;2023-06-05T01:59:59;13.90;99.90
5705;DHT22;2877;48.238;11.160;2023-06-05T02:02:43;13.90;99.90
5705;DHT22;2877;48.238;11.160;2023-06-05T02:05:09;13.80;99.90
5705;DHT22;2877;48.238;11.160;2023-06-05T02:07:40;13.80;99.90
5705;DHT22;2877;48.238;11.160;2023-06-05T02:10:07;13.80;99.90
5705;DHT22;2877;48.238;11.160;2023-06-05T02:12:32;13.80;99.90
5705;DHT22;2877;48.238;11.160;2023-06-05T02:14:59;13.70;99.90
5705;DHT22;2877;48.238;11.160;2023-06-05T02:17:25;13.60;99.90
5705;DHT22;2877;48.238;11.160;2023-06-05T02:19:51;13.60;99.90
5705;DHT22;2877;48.238;11.160;2023-06-05T02:22:17;13.60;99.90
5705;DHT22;2877;48.238;11.160;2023-06-05T02:24:43;13.50;99.90
5705;DHT22;2877;48.238;11.160;2023-06-05T02:27:09;13.50;99.90
5705;DHT22;2877;48.238;11.160;2023-06-05T02:29:38;13.50;99.90
5705;DHT22;2877;48.238;11.160;2023-06-05T02:32:05;13.40;99.90
5705;DHT22;2877;48.238;11.160;2023-06-05T02:34:31;13.40;99.90
5705;DHT22;2877;48.238;11.160;2023-06-05T02:36:58;13.50;99.90
5705;DHT22;2877;48.238;11.160;2023-06-05T02:39:24;13.50;99.90
5705;DHT22;2877;48.238;11.160;2023-06-05T02:41:51;13.50;99.90
5705;DHT22;2877;48.238;11.160;2023-06-05T02:44:16;13.50;99.90
5705;DHT22;2877;48.238;11.160;2023-06-05T02:46:42;13.50;99.90
5705;DHT22;2877;48.238;11.160;2023-06-05T02:49:08;13.50;99.90
5705;DHT22;2877;48.238;11.160;2023-06-05T02:51:33;13.60;99.90
5705;DHT22;2877;48.238;11.160;2023-06-05T02:53:59;13.60;99.90
5705;DHT22;2877;48.238;11.160;2023-06-05T02:56:24;13.50;99.90
5705;DHT22;2877;48.238;11.160;2023-06-05T02:58:52;13.50;99.90
5705;DHT22;2877;48.238;11.160;2023-06-05T03:01:18;13.50;99.90
5705;DHT22;2877;48.238;11.160;2023-06-05T03:03:46;13.40;99.90
5705;DHT22;2877;48.238;11.160;2023-06-05T03:06:14;13.30;99.90
5705;DHT22;2877;48.238;11.160;2023-06-05T03:08:43;13.20;99.90
5705;DHT22;2877;48.238;11.160;2023-06-05T03:11:09;13.10;99.90
5705;DHT22;2877;48.238;11.160;2023-06-05T03:13:35;13.00;99.90
5705;DHT22;2877;48.238;11.160;2023-06-05T03:16:01;12.90;99.90
5705;DHT22;2877;48.238;11.160;2023-06-05T03:18:29;12.90;99.90
5705;DHT22;2877;48.238;11.160;2023-06-05T03:20:56;12.90;99.90
5705;DHT22;2877;48.238;11.160;2023-06-05T03:23:23;12.80;99.90
5705;DHT22;2877;48.238;11.160;2023-06-05T03:25:49;12.80;99.90
5705;DHT22;2877;48.238;11.160;2023-06-05T03:28:15;12.70;99.90
5705;DHT22;2877;48.238;11.160;2023-06-05T03:30:40;12.70;99.90
5705;DHT22;2877;48.238;11.160;2023-06-05T03:33:06;12.60;99.90
5705;DHT22;2877;48.238;11.160;2023-06-05T03:35:32;12.60;99.90
5705;DHT22;2877;48.238;11.160;2023-06-05T03:37:58;12.60;99.90
5705;DHT22;2877;48.238;11.160;2023-06-05T03:40:24;12.50;99.90
5705;DHT22;2877;48.238;11.160;2023-06-05T03:42:50;12.50;99.90
5705;DHT22;2877;48.238;11.160;2023-06-05T03:45:15;12.50;99.90
5705;DHT22;2877;48.238;11.160;2023-06-05T03:47:41;12.50;99.90
5705;DHT22;2877;48.238;11.160;2023-06-05T03:50:10;12.60;99.90
5705;DHT22;2877;48.238;11.160;2023-06-05T03:52:35;12.60;99.90
5705;DHT22;2877;48.238;11.160;2023-06-05T03:55:05;12.60;99.90
5705;DHT22;2877;48.238;11.160;2023-06-05T03:57:33;12.70;99.90
5705;DHT22;2877;48.238;11.160;2023-06-05T03:59:59;12.70;99.90
5705;DHT22;2877;48.238;11.160;2023-06-05T04:02:25;12.70;99.90
5705;DHT22;2877;48.238;11.160;2023-06-05T04:04:50;12.80;99.90
5705;DHT22;2877;48.238;11.160;2023-06-05T04:07:17;12.80;99.90
5705;DHT22;2877;48.238;11.160;2023-06-05T04:09:42;12.90;99.90
5705;DHT22;2877;48.238;11.160;2023-06-05T04:12:08;12.90;99.90
5705;DHT22;2877;48.238;11.160;2023-06-05T04:14:36;12.90;99.90
5705;DHT22;2877;48.238;11.160;2023-06-05T04:17:02;13.00;99.90
5705;DHT22;2877;48.238;11.160;2023-06-05T04:19:28;13.00;99.90
5705;DHT22;2877;48.238;11.160;2023-06-05T04:21:54;13.00;99.90
5705;DHT22;2877;48.238;11.160;2023-06-05T04:24:19;13.00;99.90
5705;DHT22;2877;48.238;11.160;2023-06-05T04:26:45;13.00;99.90
5705;DHT22;2877;48.238;11.160;2023-06-05T04:29:13;13.10;99.90
5705;DHT22;2877;48.238;11.160;2023-06-05T04:31:44;13.20;99.90
5705;DHT22;2877;48.238;11.160;2023-06-05T04:34:10;13.20;99.90
5705;DHT22;2877;48.238;11.160;2023-06-05T04:36:36;13.30;99.90
5705;DHT22;2877;48.238;11.160;2023-06-05T04:39:02;13.40;99.90
5705;DHT22;2877;48.238;11.160;2023-06-05T04:41:32;13.50;99.90
5705;DHT22;2877;48.238;11.160;2023-06-05T04:43:58;13.60;99.90
5705;DHT22;2877;48.238;11.160;2023-06-05T04:46:25;13.70;99.90
5705;DHT22;2877;48.238;11.160;2023-06-05T04:48:51;13.70;99.90
5705;DHT22;2877;48.238;11.160;2023-06-05T04:51:21;13.90;99.90
5705;DHT22;2877;48.238;11.160;2023-06-05T04:53:47;13.90;99.90
5705;DHT22;2877;48.238;11.160;2023-06-05T04:56:18;14.00;99.90
5705;DHT22;2877;48.238;11.160;2023-06-05T04:58:44;14.20;99.90
5705;DHT22;2877;48.238;11.160;2023-06-05T05:01:09;14.30;99.90
5705;DHT22;2877;48.238;11.160;2023-06-05T05:03:36;14.40;99.90
5705;DHT22;2877;48.238;11.160;2023-06-05T05:06:02;14.50;99.90
5705;DHT22;2877;48.238;11.160;2023-06-05T05:08:28;14.70;99.90
5705;DHT22;2877;48.238;11.160;2023-06-05T05:10:53;14.80;99.90
5705;DHT22;2877;48.238;11.160;2023-06-05T05:13:19;14.90;99.90
5705;DHT22;2877;48.238;11.160;2023-06-05T05:15:44;14.90;99.90
5705;DHT22;2877;48.238;11.160;2023-06-05T05:18:10;14.90;99.90
5705;DHT22;2877;48.238;11.160;2023-06-05T05:20:36;14.90;99.90
5705;DHT22;2877;48.238;11.160;2023-06-05T05:23:01;15.00;99.90
5705;DHT22;2877;48.238;11.160;2023-06-05T05:25:27;15.00;99.90
5705;DHT22;2877;48.238;11.160;2023-06-05T05:27:53;15.10;99.90
5705;DHT22;2877;48.238;11.160;2023-06-05T05:30:19;15.10;99.90
5705;DHT22;2877;48.238;11.160;2023-06-05T05:32:44;15.20;99.90
5705;DHT22;2877;48.238;11.160;2023-06-05T05:35:10;15.30;99.90
5705;DHT22;2877;48.238;11.160;2023-06-05T05:37:35;15.40;99.90
5705;DHT22;2877;48.238;11.160;2023-06-05T05:40:01;15.50;99.90
5705;DHT22;2877;48.238;11.160;2023-06-05T05:42:28;15.60;99.90
5705;DHT22;2877;48.238;11.160;2023-06-05T05:44:54;15.70;99.90
5705;DHT22;2877;48.238;11.160;2023-06-05T05:47:20;15.80;99.90
5705;DHT22;2877;48.238;11.160;2023-06-05T05:49:45;15.80;99.90
5705;DHT22;2877;48.238;11.160;2023-06-05T05:52:11;15.90;99.90
5705;DHT22;2877;48.238;11.160;2023-06-05T05:54:36;16.10;99.90
5705;DHT22;2877;48.238;11.160;2023-06-05T05:57:02;16.30;99.90
5705;DHT22;2877;48.238;11.160;2023-06-05T05:59:30;16.60;99.90
5705;DHT22;2877;48.238;11.160;2023-06-05T06:01:55;16.70;99.90
5705;DHT22;2877;48.238;11.160;2023-06-05T06:04:23;16.80;99.90
5705;DHT22;2877;48.238;11.160;2023-06-05T06:06:49;17.00;99.90
5705;DHT22;2877;48.238;11.160;2023-06-05T06:09:18;17.30;99.90
5705;DHT22;2877;48.238;11.160;2023-06-05T06:11:44;17.40;99.90
5705;DHT22;2877;48.238;11.160;2023-06-05T06:14:09;17.60;99.90
5705;DHT22;2877;48.238;11.160;2023-06-05T06:16:37;17.80;99.90
5705;DHT22;2877;48.238;11.160;2023-06-05T06:19:03;17.90;99.90
5705;DHT22;2877;48.238;11.160;2023-06-05T06:21:29;17.90;99.90
5705;DHT22;2877;48.238;11.160;2023-06-05T06:23:54;18.00;99.90
5705;DHT22;2877;48.238;11.160;2023-06-05T06:26:20;18.10;99.90
5705;DHT22;2877;48.238;11.160;2023-06-05T06:28:46;18.20;99.90
5705;DHT22;2877;48.238;11.160;2023-06-05T06:31:12;18.30;99.90
5705;DHT22;2877;48.238;11.160;2023-06-05T06:33:38;18.40;99.90
5705;DHT22;2877;48.238;11.160;2023-06-05T06:36:04;18.40;99.90
5705;DHT22;2877;48.238;11.160;2023-06-05T06:38:30;18.60;99.90
5705;DHT22;2877;48.238;11.160;2023-06-05T06:40:57;18.70;99.90
5705;DHT22;2877;48.238;11.160;2023-06-05T06:43:23;18.90;99.90
5705;DHT22;2877;48.238;11.160;2023-06-05T06:45:49;19.00;99.90
5705;DHT22;2877;48.238;11.160;2023-06-05T06:48:15;19.10;99.90
5705;DHT22;2877;48.238;11.160;2023-06-05T06:50:42;19.20;99.90
5705;DHT22;2877;48.238;11.160;2023-06-05T06:53:08;19.30;99.90
5705;DHT22;2877;48.238;11.160;2023-06-05T06:55:34;19.40;99.90
5705;DHT22;2877;48.238;11.160;2023-06-05T06:57:59;19.30;99.90
5705;DHT22;2877;48.238;11.160;2023-06-05T07:00:25;19.40;99.90
5705;DHT22;2877;48.238;11.160;2023-06-05T07:02:51;19.60;99.90
5705;DHT22;2877;48.238;11.160;2023-06-05T07:05:16;19.50;99.90
5705;DHT22;2877;48.238;11.160;2023-06-05T07:07:43;19.60;99.90
5705;DHT22;2877;48.238;11.160;2023-06-05T07:10:09;19.60;99.90
5705;DHT22;2877;48.238;11.160;2023-06-05T07:12:34;19.50;99.90
5705;DHT22;2877;48.238;11.160;2023-06-05T07:15:00;19.50;99.90
5705;DHT22;2877;48.238;11.160;2023-06-05T07:17:25;19.60;99.90
5705;DHT22;2877;48.238;11.160;2023-06-05T07:19:54;19.90;99.90
5705;DHT22;2877;48.238;11.160;2023-06-05T07:22:20;19.90;99.90
5705;DHT22;2877;48.238;11.160;2023-06-05T07:24:45;19.80;99.90
5705;DHT22;2877;48.238;11.160;2023-06-05T07:27:11;19.70;99.90
5705;DHT22;2877;48.238;11.160;2023-06-05T07:29:37;19.80;99.90
5705;DHT22;2877;48.238;11.160;2023-06-05T07:32:03;19.80;99.90
5705;DHT22;2877;48.238;11.160;2023-06-05T07:34:32;20.00;99.90
5705;DHT22;2877;48.238;11.160;2023-06-05T07:36:59;20.20;99.90
5705;DHT22;2877;48.238;11.160;2023-06-05T07:39:24;20.30;99.90
5705;DHT22;2877;48.238;11.160;2023-06-05T07:41:51;20.40;99.90
5705;DHT22;2877;48.238;11.160;2023-06-05T07:44:19;20.60;99.90
5705;DHT22;2877;48.238;11.160;2023-06-05T07:46:47;20.80;99.90
5705;DHT22;2877;48.238;11.160;2023-06-05T07:49:13;20.70;99.90
5705;DHT22;2877;48.238;11.160;2023-06-05T07:51:41;20.70;99.90
5705;DHT22;2877;48.238;11.160;2023-06-05T07:54:09;20.70;99.90
5705;DHT22;2877;48.238;11.160;2023-06-05T07:56:35;20.70;99.90
5705;DHT22;2877;48.238;11.160;2023-06-05T07:59:03;20.80;99.90
5705;DHT22;2877;48.238;11.160;2023-06-05T08:01:30;20.90;99.90
5705;DHT22;2877;48.238;11.160;2023-06-05T08:03:56;21.10;99.90
5705;DHT22;2877;48.238;11.160;2023-06-05T08:06:24;21.10;99.90
5705;DHT22;2877;48.238;11.160;2023-06-05T08:08:50;21.10;99.90
5705;DHT22;2877;48.238;11.160;2023-06-05T08:11:16;21.20;99.90
5705;DHT22;2877;48.238;11.160;2023-06-05T08:13:41;21.00;99.90
5705;DHT22;2877;48.238;11.160;2023-06-05T08:16:07;21.00;99.90
5705;DHT22;2877;48.238;11.160;2023-06-05T08:18:33;21.10;99.90
5705;DHT22;2877;48.238;11.160;2023-06-05T08:20:58;21.10;99.90
5705;DHT22;2877;48.238;11.160;2023-06-05T08:23:24;21.20;99.90
5705;DHT22;2877;48.238;11.160;2023-06-05T08:25:49;21.30;99.90
5705;DHT22;2877;48.238;11.160;2023-06-05T08:28:15;21.50;99.70
5705;DHT22;2877;48.238;11.160;2023-06-05T08:30:42;21.50;99.10
5705;DHT22;2877;48.238;11.160;2023-06-05T08:33:07;21.60;98.40
5705;DHT22;2877;48.238;11.160;2023-06-05T08:35:33;21.60;97.70
5705;DHT22;2877;48.238;11.160;2023-06-05T08:37:59;21.70;98.00
5705;DHT22;2877;48.238;11.160;2023-06-05T08:40:28;21.90;98.20
5705;DHT22;2877;48.238;11.160;2023-06-05T08:42:54;22.00;97.70
5705;DHT22;2877;48.238;11.160;2023-06-05T08:45:21;22.00;96.60
5705;DHT22;2877;48.238;11.160;2023-06-05T08:47:50;22.00;97.50
5705;DHT22;2877;48.238;11.160;2023-06-05T08:50:16;21.80;96.90
5705;DHT22;2877;48.238;11.160;2023-06-05T08:52:43;21.50;97.60
5705;DHT22;2877;48.238;11.160;2023-06-05T08:55:11;21.70;97.70
5705;DHT22;2877;48.238;11.160;2023-06-05T08:57:38;22.00;96.50
5705;DHT22;2877;48.238;11.160;2023-06-05T09:00:06;22.10;96.60
5705;DHT22;2877;48.238;11.160;2023-06-05T09:02:37;22.10;96.40
5705;DHT22;2877;48.238;11.160;2023-06-05T09:05:03;22.00;94.80
5705;DHT22;2877;48.238;11.160;2023-06-05T09:07:32;22.10;95.50
5705;DHT22;2877;48.238;11.160;2023-06-05T09:09:58;22.50;95.30
5705;DHT22;2877;48.238;11.160;2023-06-05T09:12:24;22.90;93.80
5705;DHT22;2877;48.238;11.160;2023-06-05T09:14:52;23.20;92.70
5705;DHT22;2877;48.238;11.160;2023-06-05T09:17:17;23.40;92.20
5705;DHT22;2877;48.238;11.160;2023-06-05T09:19:44;23.20;91.90
5705;DHT22;2877;48.238;11.160;2023-06-05T09:22:11;23.10;91.30
5705;DHT22;2877;48.238;11.160;2023-06-05T09:24:41;23.30;91.80
5705;DHT22;2877;48.238;11.160;2023-06-05T09:27:10;23.40;91.20
5705;DHT22;2877;48.238;11.160;2023-06-05T09:29:38;23.40;91.10
5705;DHT22;2877;48.238;11.160;2023-06-05T09:32:08;23.70;90.40
5705;DHT22;2877;48.238;11.160;2023-06-05T09:34:39;23.50;88.80
5705;DHT22;2877;48.238;11.160;2023-06-05T09:37:07;22.90;87.60
5705;DHT22;2877;48.238;11.160;2023-06-05T09:39:37;22.60;88.80
5705;DHT22;2877;48.238;11.160;2023-06-05T09:42:03;22.70;88.00
5705;DHT22;2877;48.238;11.160;2023-06-05T09:44:29;22.70;90.00
5705;DHT22;2877;48.238;11.160;2023-06-05T09:47:11;23.20;90.30
5705;DHT22;2877;48.238;11.160;2023-06-05T09:52:11;23.20;84.60
5705;DHT22;2877;48.238;11.160;2023-06-05T09:54:39;23.00;85.20
5705;DHT22;2877;48.238;11.160;2023-06-05T09:57:07;23.20;84.90
5705;DHT22;2877;48.238;11.160;2023-06-05T09:59:45;23.40;85.80
5705;DHT22;2877;48.238;11.160;2023-06-05T10:02:12;23.60;85.10
5705;DHT22;2877;48.238;11.160;2023-06-05T10:04:46;23.80;83.40
5705;DHT22;2877;48.238;11.160;2023-06-05T10:07:13;23.80;83.90
5705;DHT22;2877;48.238;11.160;2023-06-05T10:09:40;24.10;80.30
5705;DHT22;2877;48.238;11.160;2023-06-05T10:12:07;24.50;80.00
5705;DHT22;2877;48.238;11.160;2023-06-05T10:14:35;24.70;78.70
5705;DHT22;2877;48.238;11.160;2023-06-05T10:17:02;24.80;78.60
5705;DHT22;2877;48.238;11.160;2023-06-05T10:19:28;24.90;78.00
5705;DHT22;2877;48.238;11.160;2023-06-05T10:21:53;24.90;74.80
5705;DHT22;2877;48.238;11.160;2023-06-05T10:37:41;23.70;77.70
5705;DHT22;2877;48.238;11.160;2023-06-05T10:40:11;23.60;77.20
5705;DHT22;2877;48.238;11.160;2023-06-05T10:42:37;23.80;76.60
5705;DHT22;2877;48.238;11.160;2023-06-05T10:45:03;24.40;77.70
5705;DHT22;2877;48.238;11.160;2023-06-05T10:52:48;25.40;70.10
5705;DHT22;2877;48.238;11.160;2023-06-05T10:55:15;25.90;69.00
5705;DHT22;2877;48.238;11.160;2023-06-05T11:00:29;26.40;66.80
5705;DHT22;2877;48.238;11.160;2023-06-05T11:02:56;26.60;63.40
5705;DHT22;2877;48.238;11.160;2023-06-05T11:05:22;26.50;64.30
5705;DHT22;2877;48.238;11.160;2023-06-05T11:08:14;26.80;65.90
5705;DHT22;2877;48.238;11.160;2023-06-05T11:13:51;27.50;61.50
5705;DHT22;2877;48.238;11.160;2023-06-05T11:16:27;27.70;60.20
5705;DHT22;2877;48.238;11.160;2023-06-05T11:18:52;27.90;60.30
5705;DHT22;2877;48.238;11.160;2023-06-05T11:21:19;27.70;60.90
5705;DHT22;2877;48.238;11.160;2023-06-05T11:24:14;27.90;58.70
5705;DHT22;2877;48.238;11.160;2023-06-05T11:26:41;28.10;60.00
5705;DHT22;2877;48.238;11.160;2023-06-05T11:29:12;28.70;59.90
5705;DHT22;2877;48.238;11.160;2023-06-05T11:31:38;28.90;57.50
5705;DHT22;2877;48.238;11.160;2023-06-05T11:34:11;28.90;57.10
5705;DHT22;2877;48.238;11.160;2023-06-05T11:36:37;29.10;56.60
5705;DHT22;2877;48.238;11.160;2023-06-05T11:39:03;28.70;56.20
5705;DHT22;2877;48.238;11.160;2023-06-05T11:41:29;29.20;54.70
5705;DHT22;2877;48.238;11.160;2023-06-05T11:43:54;29.70;53.40
5705;DHT22;2877;48.238;11.160;2023-06-05T11:46:36;29.70;56.00
5705;DHT22;2877;48.238;11.160;2023-06-05T11:49:02;28.70;55.30
5705;DHT22;2877;48.238;11.160;2023-06-05T11:51:33;27.10;58.50
5705;DHT22;2877;48.238;11.160;2023-06-05T11:53:59;26.50;61.80
5705;DHT22;2877;48.238;11.160;2023-06-05T11:56:27;26.00;63.30
5705;DHT22;2877;48.238;11.160;2023-06-05T11:58:53;26.10;61.60
5705;DHT22;2877;48.238;11.160;2023-06-05T12:01:20;25.50;62.10
5705;DHT22;2877;48.238;11.160;2023-06-05T12:04:07;25.10;63.10
5705;DHT22;2877;48.238;11.160;2023-06-05T12:06:39;24.80;65.10
5705;DHT22;2877;48.238;11.160;2023-06-05T12:09:07;24.80;65.30
5705;DHT22;2877;48.238;11.160;2023-06-05T12:11:37;24.90;65.30
5705;DHT22;2877;48.238;11.160;2023-06-05T12:14:07;24.70;63.80
5705;DHT22;2877;48.238;11.160;2023-06-05T12:16:34;24.60;65.30
5705;DHT22;2877;48.238;11.160;2023-06-05T12:19:01;24.70;64.80
5705;DHT22;2877;48.238;11.160;2023-06-05T12:21:27;24.80;64.90
5705;DHT22;2877;48.238;11.160;2023-06-05T12:24:04;24.90;65.00
5705;DHT22;2877;48.238;11.160;2023-06-05T12:26:30;25.20;61.40
5705;DHT22;2877;48.238;11.160;2023-06-05T12:29:03;25.40;60.80
5705;DHT22;2877;48.238;11.160;2023-06-05T12:31:37;25.50;62.80
5705;DHT22;2877;48.238;11.160;2023-06-05T12:34:05;26.00;59.70
5705;DHT22;2877;48.238;11.160;2023-06-05T12:36:37;27.00;57.80
5705;DHT22;2877;48.238;11.160;2023-06-05T12:39:03;28.20;56.40
5705;DHT22;2877;48.238;11.160;2023-06-05T12:41:32;29.40;54.20
5705;DHT22;2877;48.238;11.160;2023-06-05T12:44:03;29.30;54.40
5705;DHT22;2877;48.238;11.160;2023-06-05T12:46:30;30.00;53.80
5705;DHT22;2877;48.238;11.160;2023-06-05T12:48:57;30.50;53.70
5705;DHT22;2877;48.238;11.160;2023-06-05T12:51:23;30.90;50.80
5705;DHT22;2877;48.238;11.160;2023-06-05T12:53:51;31.00;52.40
5705;DHT22;2877;48.238;11.160;2023-06-05T12:56:17;30.70;51.10
5705;DHT22;2877;48.238;11.160;2023-06-05T12:58:42;29.80;53.70
5705;DHT22;2877;48.238;11.160;2023-06-05T13:01:08;28.30;55.60
5705;DHT22;2877;48.238;11.160;2023-06-05T13:03:33;27.30;57.60
5705;DHT22;2877;48.238;11.160;2023-06-05T13:05:59;26.50;58.90
5705;DHT22;2877;48.238;11.160;2023-06-05T13:08:25;26.00;59.90
5705;DHT22;2877;48.238;11.160;2023-06-05T13:10:51;25.80;60.60
5705;DHT22;2877;48.238;11.160;2023-06-05T13:13:16;25.70;60.50
5705;DHT22;2877;48.238;11.160;2023-06-05T13:15:42;26.00;59.40
5705;DHT22;2877;48.238;11.160;2023-06-05T13:18:07;25.90;58.70
5705;DHT22;2877;48.238;11.160;2023-06-05T13:20:35;25.90;57.80
5705;DHT22;2877;48.238;11.160;2023-06-05T13:23:00;25.90;58.30
5705;DHT22;2877;48.238;11.160;2023-06-05T13:25:26;26.50;58.30
5705;DHT22;2877;48.238;11.160;2023-06-05T13:27:51;27.30;57.30
5705;DHT22;2877;48.238;11.160;2023-06-05T13:30:17;28.00;53.90
5705;DHT22;2877;48.238;11.160;2023-06-05T13:32:43;27.70;54.40
5705;DHT22;2877;48.238;11.160;2023-06-05T13:35:10;27.10;57.70
5705;DHT22;2877;48.238;11.160;2023-06-05T13:37:37;26.80;57.40
5705;DHT22;2877;48.238;11.160;2023-06-05T13:40:02;26.20;57.40
5705;DHT22;2877;48.238;11.160;2023-06-05T13:42:32;26.30;58.90
5705;DHT22;2877;48.238;11.160;2023-06-05T13:44:57;26.30;58.30
5705;DHT22;2877;48.238;11.160;2023-06-05T13:47:23;26.10;56.80
5705;DHT22;2877;48.238;11.160;2023-06-05T13:49:48;25.90;58.30
5705;DHT22;2877;48.238;11.160;2023-06-05T13:52:14;25.80;57.50
5705;DHT22;2877;48.238;11.160;2023-06-05T13:54:39;26.60;57.00
5705;DHT22;2877;48.238;11.160;2023-06-05T13:57:06;27.10;56.30
5705;DHT22;2877;48.238;11.160;2023-06-05T13:59:32;27.60;56.70
5705;DHT22;2877;48.238;11.160;2023-06-05T14:01:58;27.70;55.10
5705;DHT22;2877;48.238;11.160;2023-06-05T14:04:23;27.80;54.90
5705;DHT22;2877;48.238;11.160;2023-06-05T14:06:49;27.70;54.30
5705;DHT22;2877;48.238;11.160;2023-06-05T14:09:15;28.10;55.80
5705;DHT22;2877;48.238;11.160;2023-06-05T14:11:41;28.90;52.30
5705;DHT22;2877;48.238;11.160;2023-06-05T14:14:10;29.50;51.40
5705;DHT22;2877;48.238;11.160;2023-06-05T14:16:36;30.50;50.20
5705;DHT22;2877;48.238;11.160;2023-06-05T14:19:01;30.30;49.10
5705;DHT22;2877;48.238;11.160;2023-06-05T14:21:27;29.20;49.80
5705;DHT22;2877;48.238;11.160;2023-06-05T14:23:53;29.10;52.40
5705;DHT22;2877;48.238;11.160;2023-06-05T14:26:18;29.30;52.50
5705;DHT22;2877;48.238;11.160;2023-06-05T14:28:44;29.40;56.30
5705;DHT22;2877;48.238;11.160;2023-06-05T14:31:09;29.50;57.50
5705;DHT22;2877;48.238;11.160;2023-06-05T14:33:35;29.70;57.30
5705;DHT22;2877;48.238;11.160;2023-06-05T14:36:00;29.20;57.60
5705;DHT22;2877;48.238;11.160;2023-06-05T14:38:26;28.30;59.60
5705;DHT22;2877;48.238;11.160;2023-06-05T14:40:52;27.40;62.10
5705;DHT22;2877;48.238;11.160;2023-06-05T14:43:18;26.80;63.60
5705;DHT22;2877;48.238;11.160;2023-06-05T14:45:44;26.30;64.80
5705;DHT22;2877;48.238;11.160;2023-06-05T14:48:09;25.80;65.60
5705;DHT22;2877;48.238;11.160;2023-06-05T14:50:38;25.20;67.30
5705;DHT22;2877;48.238;11.160;2023-06-05T14:53:03;25.00;69.10
5705;DHT22;2877;48.238;11.160;2023-06-05T14:55:29;24.80;67.90
5705;DHT22;2877;48.238;11.160;2023-06-05T14:57:55;24.70;67.50
5705;DHT22;2877;48.238;11.160;2023-06-05T15:00:21;24.60;68.90
5705;DHT22;2877;48.238;11.160;2023-06-05T15:02:46;24.30;70.80
5705;DHT22;2877;48.238;11.160;2023-06-05T15:05:12;24.00;71.30
5705;DHT22;2877;48.238;11.160;2023-06-05T15:07:40;24.00;71.70
5705;DHT22;2877;48.238;11.160;2023-06-05T15:10:07;24.10;72.20
5705;DHT22;2877;48.238;11.160;2023-06-05T15:12:34;23.90;70.70
5705;DHT22;2877;48.238;11.160;2023-06-05T15:15:00;24.20;71.50
5705;DHT22;2877;48.238;11.160;2023-06-05T15:17:26;25.00;70.60
5705;DHT22;2877;48.238;11.160;2023-06-05T15:19:51;25.60;69.30
5705;DHT22;2877;48.238;11.160;2023-06-05T15:22:17;26.10;69.00
5705;DHT22;2877;48.238;11.160;2023-06-05T15:24:42;26.20;67.50
5705;DHT22;2877;48.238;11.160;2023-06-05T15:27:08;26.10;67.70
5705;DHT22;2877;48.238;11.160;2023-06-05T15:29:34;26.20;67.00
5705;DHT22;2877;48.238;11.160;2023-06-05T15:31:59;25.80;67.30
5705;DHT22;2877;48.238;11.160;2023-06-05T15:34:25;25.80;68.00
5705;DHT22;2877;48.238;11.160;2023-06-05T15:36:51;25.70;68.10
5705;DHT22;2877;48.238;11.160;2023-06-05T15:39:16;25.50;69.30
5705;DHT22;2877;48.238;11.160;2023-06-05T15:41:42;25.60;69.50
5705;DHT22;2877;48.238;11.160;2023-06-05T15:44:07;25.70;69.10
5705;DHT22;2877;48.238;11.160;2023-06-05T15:46:35;25.50;68.90
5705;DHT22;2877;48.238;11.160;2023-06-05T15:49:01;25.10;69.70
5705;DHT22;2877;48.238;11.160;2023-06-05T15:51:26;24.50;70.80
5705;DHT22;2877;48.238;11.160;2023-06-05T15:53:54;24.10;71.50
5705;DHT22;2877;48.238;11.160;2023-06-05T15:56:20;23.80;72.00
5705;DHT22;2877;48.238;11.160;2023-06-05T15:58:46;23.60;73.10
5705;DHT22;2877;48.238;11.160;2023-06-05T16:01:12;23.50;73.70
5705;DHT22;2877;48.238;11.160;2023-06-05T16:03:38;23.40;74.50
5705;DHT22;2877;48.238;11.160;2023-06-05T16:06:04;23.20;74.10
5705;DHT22;2877;48.238;11.160;2023-06-05T16:08:30;23.10;75.10
5705;DHT22;2877;48.238;11.160;2023-06-05T16:10:55;22.80;65.90
5705;DHT22;2877;48.238;11.160;2023-06-05T16:13:22;22.30;66.00
5705;DHT22;2877;48.238;11.160;2023-06-05T16:15:48;21.70;68.90